Time;durP1;ratioP1;P1;durP2;ratioP2;P2;SDS_P1;SDS_P2;PMS_P1;PMS_P2;Temp;Humidity;BMP_temperature;BMP_pressure;BME280_temperature;BME280_humidity;BME280_pressure;Samples;Min_cycle;Max_cycle;Signal;HPM_P1;HPM_P2
2023/10/02 00:05:05;;;;;;;23.30;12.10;;;;;;;20.55;57.84;100307.78;4935694;29;20055;-82
2023/10/02 00:07:33;;;;;;;23.58;12.77;;;;;;;20.55;57.74;100310.44;4935851;29;20143;-81
2023/10/02 00:10:01;;;;;;;21.77;11.63;;;;;;;20.56;57.69;100309.47;4935651;29;20056;-81
2023/10/02 00:12:31;;;;;;;21.58;12.10;;;;;;;20.54;57.78;100306.94;4935576;29;20047;-81
2023/10/02 00:14:58;;;;;;;22.35;11.80;;;;;;;20.53;57.81;100304.41;4935444;29;20094;-81
2023/10/02 00:17:25;;;;;;;21.77;12.32;;;;;;;20.52;57.78;100308.06;4934384;29;20139;-81
2023/10/02 00:20:12;;;;;;;23.13;12.50;;;;;;;20.51;57.96;100303.69;4934486;29;20460;-81
2023/10/02 00:22:41;;;;;;;19.15;11.48;;;;;;;20.49;57.69;100308.34;4935524;29;20394;-81
2023/10/02 00:25:19;;;;;;;22.27;11.38;;;;;;;20.43;58.40;100301.72;4935325;29;20110;-81
2023/10/02 00:27:54;;;;;;;23.02;12.23;;;;;;;20.41;58.52;100307.19;4935640;29;20393;-81
2023/10/02 00:30:36;;;;;;;20.50;11.38;;;;;;;20.41;58.49;100303.69;4934277;29;20519;-81
2023/10/02 00:33:05;;;;;;;22.33;11.57;;;;;;;20.39;58.01;100305.66;4935251;29;20047;-81
2023/10/02 00:35:49;;;;;;;24.05;12.25;;;;;;;20.37;57.72;100305.78;4934057;29;20048;-82
2023/10/02 00:38:16;;;;;;;21.10;11.93;;;;;;;20.36;58.02;100301.41;4935401;29;20059;-81
2023/10/02 00:40:42;;;;;;;18.15;11.05;;;;;;;20.32;58.17;100289.31;4988560;23;20074;-75
2023/10/02 00:46:00;;;;;;;22.83;11.65;;;;;;;20.28;58.33;100287.91;4954130;28;20413;-77
2023/10/02 00:48:30;;;;;;;26.75;11.80;;;;;;;20.25;58.29;100283.69;4954361;28;20114;-77
2023/10/02 00:51:00;;;;;;;21.55;12.18;;;;;;;20.23;58.58;100296.34;4954228;28;20077;-77
2023/10/02 00:53:41;;;;;;;24.55;12.98;;;;;;;20.19;59.28;100286.91;4953888;28;20461;-75
2023/10/02 00:56:24;;;;;;;22.88;12.02;;;;;;;20.18;58.47;100293.22;4953412;28;20055;-74
2023/10/02 00:58:58;;;;;;;23.30;12.63;;;;;;;20.15;58.37;100289.00;4954061;28;20109;-77
2023/10/02 01:01:26;;;;;;;22.75;12.43;;;;;;;20.13;58.64;100295.47;4953822;28;20054;-77
2023/10/02 01:04:08;;;;;;;19.35;12.05;;;;;;;20.06;59.37;100297.84;4953519;28;20512;-77
2023/10/02 01:09:26;;;;;;;22.88;13.05;;;;;;;20.03;59.12;100292.75;4953717;28;20051;-75
2023/10/02 01:11:57;;;;;;;23.05;11.73;;;;;;;20.00;59.24;100287.72;4953570;28;20571;-77
2023/10/02 01:17:14;;;;;;;21.25;11.93;;;;;;;19.97;59.05;100283.44;4953548;29;20047;-76
2023/10/02 01:19:53;;;;;;;23.52;12.95;;;;;;;19.96;59.24;100288.94;4953723;28;20114;-75
2023/10/02 01:22:27;;;;;;;22.90;11.93;;;;;;;19.93;59.71;100284.69;4953651;28;20055;-76
2023/10/02 01:25:15;;;;;;;22.08;12.68;;;;;;;19.92;59.79;100278.50;4953019;28;20102;-76
2023/10/02 01:27:50;;;;;;;21.38;11.80;;;;;;;19.93;59.51;100284.69;4953588;28;20066;-75
2023/10/02 01:30:20;;;;;;;25.45;12.88;;;;;;;19.91;59.37;100274.16;4953352;28;20110;-77
2023/10/02 01:35:46;;;;;;;25.05;12.65;;;;;;;19.89;59.48;100286.78;4953265;29;20471;-76
2023/10/02 01:38:18;;;;;;;24.92;12.93;;;;;;;19.88;59.45;100281.56;4952153;28;20055;-78
2023/10/02 01:40:48;;;;;;;25.05;12.80;;;;;;;19.86;59.73;100280.88;4952833;28;20062;-77
2023/10/02 01:43:18;;;;;;;20.80;11.85;;;;;;;19.85;59.57;100281.84;4953194;28;20043;-76
2023/10/02 01:45:45;;;;;;;23.60;12.90;;;;;;;19.82;59.59;100285.66;4952875;28;20050;-77
2023/10/02 01:48:37;;;;;;;25.45;12.35;;;;;;;19.79;60.23;100280.56;4953340;29;20144;-77
2023/10/02 01:51:25;;;;;;;22.60;12.98;;;;;;;19.78;60.04;100277.03;4953201;28;20058;-77
2023/10/02 01:53:56;;;;;;;20.50;11.43;;;;;;;19.75;59.57;100274.66;4953100;28;20058;-78
2023/10/02 01:56:29;;;;;;;22.42;12.40;;;;;;;19.73;59.94;100279.28;4952961;29;20496;-79
2023/10/02 01:59:10;;;;;;;26.85;13.73;;;;;;;19.73;60.07;100279.28;4953242;28;20050;-76
2023/10/02 02:01:51;;;;;;;22.85;12.63;;;;;;;19.70;60.25;100265.34;4953222;28;20408;-78
2023/10/02 02:04:19;;;;;;;24.48;12.38;;;;;;;19.71;59.87;100264.38;4952914;28;20079;-79
2023/10/02 02:06:53;;;;;;;22.38;12.70;;;;;;;19.69;60.18;100272.50;4952690;28;20047;-77
2023/10/02 02:09:23;;;;;;;24.50;12.93;;;;;;;19.68;60.14;100273.50;4953077;28;20051;-76
2023/10/02 02:12:07;;;;;;;22.80;12.55;;;;;;;19.64;60.79;100274.75;4953032;28;20051;-76
2023/10/02 02:14:52;;;;;;;23.23;12.68;;;;;;;19.64;61.04;100269.41;4952592;28;20087;-77
2023/10/02 02:17:25;;;;;;;19.77;11.75;;;;;;;19.65;60.52;100271.09;4953069;28;20047;-77
2023/10/02 02:20:10;;;;;;;21.75;12.52;;;;;;;19.62;60.63;100272.19;4952743;28;20138;-77
2023/10/02 02:22:38;;;;;;;23.98;12.60;;;;;;;19.64;60.49;100272.94;4952829;28;20055;-76
2023/10/02 02:25:04;;;;;;;24.25;13.80;;;;;;;19.64;60.33;100272.06;4952349;29;20054;-76
2023/10/02 02:27:31;;;;;;;22.40;12.35;;;;;;;19.63;60.17;100267.72;4952643;28;20101;-75
2023/10/02 02:29:59;;;;;;;22.33;12.32;;;;;;;19.62;60.43;100264.19;4952612;28;20082;-76
2023/10/02 02:32:52;;;;;;;21.58;12.00;;;;;;;19.62;60.74;100255.34;4952564;28;20464;-76
2023/10/02 02:35:21;;;;;;;28.58;12.80;;;;;;;19.63;60.71;100254.38;4952377;28;20527;-77
2023/10/02 02:37:50;;;;;;;21.75;12.07;;;;;;;19.63;60.33;100254.38;4952512;28;20118;-75
2023/10/02 02:40:23;;;;;;;22.67;12.63;;;;;;;19.62;60.53;100250.84;4952808;28;20136;-76
2023/10/02 02:42:51;;;;;;;24.63;12.80;;;;;;;19.62;60.52;100258.84;4952707;28;20497;-77
2023/10/02 02:45:28;;;;;;;24.27;12.68;;;;;;;19.60;60.71;100257.28;4952224;28;20106;-76
2023/10/02 02:48:03;;;;;;;22.98;12.15;;;;;;;19.60;60.70;100257.28;4952584;28;20083;-78
2023/10/02 02:50:35;;;;;;;21.35;12.27;;;;;;;19.56;61.08;100256.72;4952400;28;20058;-77
2023/10/02 02:53:30;;;;;;;23.75;12.35;;;;;;;19.55;61.00;100259.53;4952512;28;20055;-78
2023/10/02 02:56:22;;;;;;;21.75;11.85;;;;;;;19.51;61.21;100250.94;4952305;28;20047;-76
2023/10/02 02:58:52;;;;;;;22.45;12.25;;;;;;;19.51;60.56;100259.78;4952444;28;20054;-77
2023/10/02 03:01:23;;;;;;;21.95;12.05;;;;;;;19.49;60.97;100255.56;4952550;28;20047;-75
2023/10/02 03:03:56;;;;;;;20.88;12.57;;;;;;;19.44;61.37;100249.78;4951239;28;20055;-74
2023/10/02 03:06:23;;;;;;;24.40;13.25;;;;;;;19.43;60.90;100246.25;4951975;28;20058;-76
2023/10/02 03:08:53;;;;;;;22.27;12.30;;;;;;;19.40;61.22;100252.72;4952329;28;20078;-75
2023/10/02 03:11:22;;;;;;;23.75;12.50;;;;;;;19.38;61.30;100248.50;4952168;28;20053;-77
2023/10/02 03:13:50;;;;;;;23.67;12.57;;;;;;;19.35;61.09;100243.41;4952338;28;20137;-76
2023/10/02 03:16:28;;;;;;;24.70;12.52;;;;;;;19.32;61.39;100247.19;4950972;29;20269;-78
2023/10/02 03:18:55;;;;;;;21.58;12.68;;;;;;;19.30;61.26;100243.81;4954777;28;20106;-77
2023/10/02 03:21:24;;;;;;;24.52;13.20;;;;;;;19.29;61.57;100243.94;4955592;28;20057;-76
2023/10/02 03:23:58;;;;;;;24.02;12.93;;;;;;;19.25;61.77;100243.38;4955810;28;20078;-76
2023/10/02 03:29:02;;;;;;;22.67;12.60;;;;;;;19.22;61.99;100246.31;4954992;28;20078;-77
2023/10/02 03:31:43;;;;;;;23.02;13.02;;;;;;;19.19;62.57;100246.56;4955246;28;20079;-75
2023/10/02 03:34:32;;;;;;;25.50;13.35;;;;;;;19.20;61.93;100238.44;4954095;28;20452;-75
2023/10/02 03:37:00;;;;;;;24.30;12.60;;;;;;;19.20;61.80;100235.75;4955380;28;20095;-77
2023/10/02 03:42:21;;;;;;;23.30;12.52;;;;;;;19.18;62.23;100236.88;4955382;29;20056;-77
2023/10/02 03:44:58;;;;;;;25.55;13.35;;;;;;;19.17;62.23;100236.00;4954995;28;20693;-77
2023/10/02 03:47:33;;;;;;;22.38;12.30;;;;;;;19.15;62.67;100232.66;4955337;28;20102;-79
2023/10/02 03:50:01;;;;;;;25.65;13.27;;;;;;;19.16;62.58;100233.47;4955174;28;20452;-79
2023/10/02 03:52:32;;;;;;;22.85;12.32;;;;;;;19.16;62.48;100231.66;4955043;28;20047;-77
2023/10/02 03:55:14;;;;;;;22.33;12.65;;;;;;;19.17;62.49;100224.50;4954685;28;20519;-77
2023/10/02 03:57:47;;;;;;;26.58;13.38;;;;;;;19.18;62.54;100221.72;4954976;29;20063;-75
2023/10/02 04:00:22;;;;;;;23.17;12.88;;;;;;;19.18;62.49;100226.19;4953765;29;20055;-77
2023/10/02 04:02:51;;;;;;;30.83;14.45;;;;;;;19.19;62.79;100212.72;4954921;28;20055;-77
2023/10/02 04:08:21;;;;;;;22.35;12.68;;;;;;;19.24;63.06;100217.66;4954855;29;20397;-78
2023/10/02 04:10:51;;;;;;;27.27;13.52;;;;;;;19.26;62.88;100215.69;4954871;28;20418;-76
2023/10/02 04:13:23;;;;;;;23.08;12.65;;;;;;;19.29;62.80;100207.44;4953356;28;20051;-75
2023/10/02 04:15:53;;;;;;;24.42;13.15;;;;;;;19.31;63.20;100210.81;4954593;28;20059;-77
2023/10/02 04:19:06;;;;;;;25.23;13.75;;;;;;;19.35;62.83;100204.22;4954741;28;20086;-76
2023/10/02 04:21:12;;;;;;;24.80;12.80;;;;;;;19.40;63.06;100206.50;4950658;28;20082;-78
2023/10/02 04:23:42;;;;;;;23.63;13.70;;;;;;;19.43;63.10;100208.06;4954290;28;20055;-75
2023/10/02 04:26:28;;;;;;;25.58;13.07;;;;;;;19.44;63.40;100210.56;4954065;28;20055;-74
2023/10/02 04:29:26;;;;;;;26.50;13.45;;;;;;;19.50;62.92;100209.19;4953910;28;20051;-75
2023/10/02 04:32:15;;;;;;;23.30;12.82;;;;;;;19.54;62.65;100202.59;4954284;28;20386;-76
2023/10/02 04:34:56;;;;;;;21.90;12.35;;;;;;;19.56;62.74;100197.13;4954139;28;20050;-77
2023/10/02 04:37:23;;;;;;;24.85;12.88;;;;;;;19.59;62.41;100195.03;4954212;28;20393;-77
2023/10/02 04:40:13;;;;;;;25.83;13.15;;;;;;;19.59;62.69;100203.03;4954246;28;20055;-81
2023/10/02 04:42:58;;;;;;;26.58;13.10;;;;;;;19.60;62.33;100199.41;4953826;28;20110;-76
2023/10/02 04:45:35;;;;;;;25.65;13.02;;;;;;;19.61;62.11;100205.56;4952679;29;20059;-77
2023/10/02 04:48:09;;;;;;;26.77;13.57;;;;;;;19.60;62.22;100207.41;4954045;28;20412;-76
2023/10/02 04:50:46;;;;;;;22.27;12.80;;;;;;;19.56;62.84;100207.81;4953970;28;20047;-77
2023/10/02 04:55:43;;;;;;;26.90;14.32;;;;;;;19.56;61.86;100197.97;4953652;28;20495;-77
2023/10/02 04:58:18;;;;;;;22.70;12.45;;;;;;;19.52;62.72;100207.25;4953862;28;20059;-77
2023/10/02 05:03:36;;;;;;;23.25;12.63;;;;;;;19.49;62.20;100207.50;4953544;28;20055;-76
2023/10/02 05:06:04;;;;;;;25.42;13.23;;;;;;;19.47;62.33;100210.31;4953557;28;20055;-76
2023/10/02 05:08:41;;;;;;;23.58;11.93;;;;;;;19.42;62.58;100211.69;4952536;28;20051;-77
2023/10/02 05:11:23;;;;;;;22.48;12.27;;;;;;;19.41;62.36;100213.53;4952447;29;20428;-77
2023/10/02 05:13:59;;;;;;;26.05;12.82;;;;;;;19.38;62.18;100206.63;4953492;28;20053;-75
2023/10/02 05:16:34;;;;;;;26.30;12.52;;;;;;;19.37;62.08;100220.09;4953462;29;20141;-76
2023/10/02 05:19:04;;;;;;;21.85;12.77;;;;;;;19.35;62.14;100219.38;4953498;28;20499;-76
2023/10/02 05:21:49;;;;;;;22.23;12.48;;;;;;;19.33;62.35;100213.34;4952016;29;20090;-74
2023/10/02 05:24:19;;;;;;;21.90;11.52;;;;;;;19.31;62.69;100221.47;4953367;28;20055;-75
2023/10/02 05:26:47;;;;;;;25.75;12.77;;;;;;;19.32;62.44;100225.00;4953517;28;20051;-76
2023/10/02 05:29:36;;;;;;;22.95;12.25;;;;;;;19.30;62.39;100221.59;4953984;28;20077;-77
2023/10/02 05:34:58;;;;;;;19.75;11.35;;;;;;;19.30;62.57;100226.94;4953070;29;20130;-76
2023/10/02 05:37:30;;;;;;;24.35;12.90;;;;;;;19.30;62.70;100224.28;4953605;28;20466;-76
2023/10/02 05:43:09;;;;;;;21.48;11.85;;;;;;;19.31;63.16;100225.97;4953120;28;20098;-76
2023/10/02 05:48:22;;;;;;;25.38;12.15;;;;;;;19.38;62.64;100227.13;4953330;28;20047;-76
2023/10/02 05:50:49;;;;;;;22.17;11.43;;;;;;;19.42;62.73;100241.03;4953200;28;20074;-77
2023/10/02 05:53:16;;;;;;;23.05;12.02;;;;;;;19.44;62.69;100233.75;4952956;28;20641;-77
2023/10/02 05:58:31;;;;;;;25.70;12.13;;;;;;;19.53;62.94;100235.63;4953013;29;20506;-77
2023/10/02 06:01:03;;;;;;;24.33;12.15;;;;;;;19.55;62.81;100227.50;4952871;28;20567;-77
2023/10/02 06:03:35;;;;;;;22.17;11.48;;;;;;;19.57;62.60;100217.50;4952955;28;20066;-76
2023/10/02 06:08:51;;;;;;;23.20;11.73;;;;;;;19.65;62.56;100231.03;4953095;29;20051;-78
2023/10/02 06:11:35;;;;;;;19.48;11.55;;;;;;;19.66;62.53;100228.22;4952923;29;20052;-77
2023/10/02 06:14:10;;;;;;;23.55;10.95;;;;;;;19.70;62.13;100231.47;4952729;28;20497;-78
2023/10/02 06:16:42;;;;;;;25.52;11.68;;;;;;;19.70;62.21;100242.13;4952468;28;20484;-77
2023/10/02 06:19:13;;;;;;;20.85;11.20;;;;;;;19.71;62.22;100243.84;4953178;28;20054;-77
2023/10/02 06:21:46;;;;;;;19.20;11.10;;;;;;;19.71;62.08;100238.50;4951605;29;20058;-77
2023/10/02 06:24:18;;;;;;;23.23;12.05;;;;;;;19.73;61.60;100241.06;4952999;28;20059;-75
2023/10/02 06:26:58;;;;;;;25.73;12.30;;;;;;;19.72;61.68;100234.00;4952509;28;20047;-77
2023/10/02 06:29:29;;;;;;;21.17;11.90;;;;;;;19.71;61.90;100235.84;4952938;28;20043;-76
2023/10/02 06:32:02;;;;;;;24.75;12.23;;;;;;;19.72;61.85;100240.19;4952326;29;20515;-77
2023/10/02 06:34:37;;;;;;;21.58;11.80;;;;;;;19.70;61.63;100239.47;4952386;28;20051;-79
2023/10/02 06:37:07;;;;;;;21.33;11.00;;;;;;;19.70;61.76;100236.81;4951510;29;20881;-76
2023/10/02 06:39:35;;;;;;;22.02;11.05;;;;;;;19.70;61.75;100241.31;4952464;28;20138;-77
2023/10/02 06:42:06;;;;;;;24.75;12.02;;;;;;;19.69;61.76;100248.47;5018683;23;20059;-81
2023/10/02 06:44:52;;;;;;;22.40;11.60;;;;;;;19.70;61.78;100247.47;4952091;28;20086;-83
2023/10/02 06:47:22;;;;;;;21.15;11.10;;;;;;;19.69;61.68;100245.81;4952434;28;20082;-81
2023/10/02 06:49:53;;;;;;;25.75;12.23;;;;;;;19.69;61.89;100240.47;4952254;28;20412;-81
2023/10/02 06:52:21;;;;;;;22.33;10.93;;;;;;;19.69;61.62;100242.31;4952628;28;20083;-82
2023/10/02 06:54:49;;;;;;;23.35;12.55;;;;;;;19.69;61.83;100234.28;4955402;28;20074;-83
2023/10/02 06:57:18;;;;;;;25.92;12.02;;;;;;;19.71;61.87;100237.66;4954210;29;20087;-81
2023/10/02 06:59:52;;;;;;;23.35;12.65;;;;;;;19.71;61.76;100240.31;4955552;28;20130;-81
2023/10/02 07:02:19;;;;;;;22.30;11.80;;;;;;;19.72;61.78;100237.53;4955680;28;20047;-81
2023/10/02 07:04:48;;;;;;;22.73;11.88;;;;;;;19.74;61.84;100242.75;4955877;28;20051;-83
2023/10/02 07:07:26;;;;;;;22.92;11.38;;;;;;;19.75;62.10;100247.09;4956062;28;20051;-81
2023/10/02 07:10:10;;;;;;;24.15;11.88;;;;;;;19.81;61.94;100254.56;4953386;28;20119;-81
2023/10/02 07:12:40;;;;;;;26.08;11.38;;;;;;;19.85;62.16;100253.28;4948075;28;20075;-83
2023/10/02 07:15:11;;;;;;;26.42;12.25;;;;;;;19.88;61.92;100241.50;4945651;29;20054;-81
2023/10/02 07:17:48;;;;;;;24.27;11.77;;;;;;;19.93;62.07;100247.28;4944711;29;20051;-82
2023/10/02 07:20:20;;;;;;;23.90;11.43;;;;;;;19.98;61.78;100249.53;4938257;29;20059;-80
2023/10/02 07:22:48;;;;;;;26.23;12.75;;;;;;;20.04;61.90;100246.38;4955484;28;20047;-81
2023/10/02 07:25:20;;;;;;;21.15;11.27;;;;;;;20.08;61.93;100242.44;4954858;28;20046;-81
2023/10/02 07:27:48;;;;;;;24.40;11.85;;;;;;;20.13;61.50;100240.19;4955289;29;20062;-82
2023/10/02 07:30:25;;;;;;;23.60;11.57;;;;;;;20.18;61.51;100240.63;4955420;28;20489;-81
2023/10/02 07:32:53;;;;;;;20.63;10.80;;;;;;;20.21;61.74;100243.97;4955470;28;20147;-82
2023/10/02 07:35:23;;;;;;;22.63;11.88;;;;;;;20.25;61.27;100235.56;4955222;28;20059;-81
2023/10/02 07:37:59;;;;;;;20.25;10.65;;;;;;;20.28;61.61;100237.97;4955051;28;20055;-80
2023/10/02 07:43:18;;;;;;;21.10;10.82;;;;;;;20.36;61.58;100241.75;4955227;28;20725;-80
2023/10/02 07:45:46;;;;;;;23.05;11.70;;;;;;;20.38;61.19;100247.81;4955072;28;20055;-79
2023/10/02 07:48:16;;;;;;;22.23;11.18;;;;;;;20.41;61.27;100245.69;4953696;29;20134;-80
2023/10/02 07:50:44;;;;;;;20.42;11.48;;;;;;;20.44;61.10;100249.91;4955292;28;20057;-80
2023/10/02 07:53:12;;;;;;;23.88;11.82;;;;;;;20.47;61.11;100251.47;4955239;28;20500;-80
2023/10/02 07:55:43;;;;;;;24.48;12.07;;;;;;;20.49;60.95;100254.84;4955054;28;20051;-80
2023/10/02 07:58:13;;;;;;;22.23;11.27;;;;;;;20.53;61.08;100248.25;4953848;28;20142;-81
2023/10/02 08:00:41;;;;;;;21.00;11.27;;;;;;;20.55;60.96;100248.94;4954772;28;20051;-81
2023/10/02 08:03:31;;;;;;;19.80;11.20;;;;;;;20.58;60.82;100246.00;4955114;28;20051;-80
2023/10/02 08:05:58;;;;;;;22.60;12.20;;;;;;;20.63;61.01;100254.44;4955126;28;20062;-80
2023/10/02 08:08:33;;;;;;;23.85;12.80;;;;;;;20.65;60.85;100260.50;4954783;28;20073;-80
2023/10/02 08:11:02;;;;;;;24.25;12.00;;;;;;;20.69;60.67;100264.59;4954298;28;20051;-81
2023/10/02 08:13:35;;;;;;;19.30;11.43;;;;;;;20.74;60.64;100260.63;4954878;28;20110;-81
2023/10/02 08:16:12;;;;;;;21.00;11.27;;;;;;;20.75;60.86;100256.97;4954784;28;20464;-80
2023/10/02 08:18:58;;;;;;;20.75;10.73;;;;;;;20.82;60.77;100256.25;4954779;28;20047;-80
2023/10/02 08:21:36;;;;;;;21.73;11.18;;;;;;;20.88;60.43;100248.66;4953920;28;20118;-81
2023/10/02 08:24:03;;;;;;;19.92;11.65;;;;;;;20.92;60.66;100248.25;4954506;28;20150;-80
2023/10/02 08:26:38;;;;;;;23.08;11.38;;;;;;;20.96;60.50;100240.78;4954117;28;20187;-81
2023/10/02 08:29:15;;;;;;;24.75;11.85;;;;;;;21.02;60.71;100239.34;4954701;28;20047;-80
2023/10/02 08:31:44;;;;;;;22.95;11.50;;;;;;;21.07;60.77;100242.44;4954143;28;20293;-81
2023/10/02 08:34:12;;;;;;;21.52;11.82;;;;;;;21.12;60.62;100236.66;4954305;28;20755;-80
2023/10/02 08:36:41;;;;;;;25.77;11.38;;;;;;;21.17;60.95;100229.88;4953236;29;20051;-80
2023/10/02 08:39:08;;;;;;;21.42;12.43;;;;;;;21.22;60.59;100230.28;4953177;28;20420;-80
2023/10/02 08:41:45;;;;;;;22.35;12.13;;;;;;;21.30;60.52;100234.91;4954132;28;20063;-81
2023/10/02 08:44:13;;;;;;;23.40;11.48;;;;;;;21.35;60.53;100240.66;4954193;29;20488;-81
2023/10/02 08:46:43;;;;;;;22.65;12.05;;;;;;;21.43;60.50;100239.94;4953851;28;20457;-80
2023/10/02 08:49:12;;;;;;;21.58;12.00;;;;;;;21.52;60.61;100245.41;4954391;28;20139;-80
2023/10/02 08:51:46;;;;;;;24.63;11.98;;;;;;;21.58;60.19;100243.00;4953931;28;20065;-81
2023/10/02 08:54:17;;;;;;;24.27;12.68;;;;;;;21.65;59.78;100239.72;4954070;28;20051;-80
2023/10/02 08:56:44;;;;;;;22.77;11.48;;;;;;;21.70;59.76;100235.59;4952431;29;20587;-80
2023/10/02 08:59:26;;;;;;;23.88;12.20;;;;;;;21.75;59.71;100229.81;4953495;28;20110;-80
2023/10/02 09:02:16;;;;;;;20.58;11.75;;;;;;;21.79;59.90;100231.19;4952785;29;20149;-82
2023/10/02 09:04:53;;;;;;;25.63;12.93;;;;;;;21.91;59.54;100222.97;4953614;28;20531;-81
2023/10/02 09:07:44;;;;;;;22.38;11.93;;;;;;;21.96;59.45;100224.22;4953555;28;20067;-81
2023/10/02 09:10:26;;;;;;;24.98;12.05;;;;;;;22.07;59.62;100225.81;4953586;28;20051;-80
2023/10/02 09:13:15;;;;;;;19.15;11.05;;;;;;;22.12;59.50;100233.41;4953804;28;20081;-80
2023/10/02 09:15:45;;;;;;;26.13;12.70;;;;;;;22.23;59.28;100229.66;4952887;28;20118;-80
2023/10/02 09:18:34;;;;;;;21.92;12.13;;;;;;;22.27;59.21;100231.03;4953614;28;20059;-80
2023/10/02 09:21:14;;;;;;;20.58;11.52;;;;;;;22.37;58.99;100230.97;4953469;28;20047;-80
2023/10/02 09:23:49;;;;;;;22.70;12.18;;;;;;;22.43;58.67;100227.66;4953453;28;20516;-80
2023/10/02 09:26:17;;;;;;;23.67;12.30;;;;;;;22.48;58.78;100224.53;4953159;28;20488;-81
2023/10/02 09:28:58;;;;;;;25.10;12.38;;;;;;;22.51;59.29;100221.53;4953485;28;20079;-80
2023/10/02 09:31:31;;;;;;;20.73;11.73;;;;;;;22.55;58.77;100222.97;4953133;28;20051;-80
2023/10/02 09:34:10;;;;;;;19.27;11.50;;;;;;;22.60;58.70;100225.16;4953264;28;20530;-80
2023/10/02 09:37:03;;;;;;;28.15;11.75;;;;;;;22.65;58.92;100221.00;4953706;28;20055;-80
2023/10/02 09:39:50;;;;;;;;;;;;;;;22.72;59.07;100218.56;4953382;28;20047;-81
2023/10/02 09:42:18;;;;;;;22.02;11.75;;;;;;;22.86;58.65;100216.28;4953236;29;19929;-81
2023/10/02 09:44:48;;;;;;;22.73;11.93;;;;;;;22.91;58.69;100209.47;4952809;28;20076;-81
2023/10/02 09:47:20;;;;;;;23.30;12.18;;;;;;;22.97;58.42;100210.69;4953372;28;20059;-81
2023/10/02 09:50:12;;;;;;;19.77;11.40;;;;;;;23.02;58.72;100199.44;4953077;28;20106;-80
2023/10/02 09:53:08;;;;;;;22.02;11.45;;;;;;;23.11;58.66;100200.34;4934012;29;20060;-81
2023/10/02 09:55:41;;;;;;;21.73;11.43;;;;;;;23.22;58.18;100205.47;4932715;29;20047;-80
2023/10/02 09:58:26;;;;;;;;;;;;;;;23.28;58.99;100204.81;4934491;29;20055;-80
2023/10/02 10:03:56;;;;;;;26.58;12.23;;;;;;;23.48;57.85;100207.31;4952883;28;20157;-81
2023/10/02 10:06:36;;;;;;;20.58;11.57;;;;;;;23.53;58.20;100196.91;4952737;28;20118;-80
2023/10/02 10:09:25;;;;;;;24.80;12.30;;;;;;;23.58;57.91;100203.63;4952956;28;20435;-80
2023/10/02 10:14:44;;;;;;;24.13;12.50;;;;;;;23.69;57.94;100206.00;4952684;28;20059;-80
2023/10/02 10:17:17;;;;;;;21.67;12.13;;;;;;;23.75;58.48;100205.38;4952836;28;20061;-80
2023/10/02 10:20:08;;;;;;;;;;;;;;;23.84;58.54;100216.16;4953350;29;20131;-80
2023/10/02 10:22:38;;;;;;;20.67;11.52;;;;;;;24.01;57.80;100212.50;4952476;29;19926;-80
2023/10/02 10:27:59;;;;;;;21.08;11.48;;;;;;;24.19;57.70;100192.72;4955051;28;20381;-80
2023/10/02 10:30:31;;;;;;;21.58;12.25;;;;;;;24.28;57.36;100191.72;4956662;28;20051;-80
2023/10/02 10:35:38;;;;;;;23.25;12.25;;;;;;;24.54;57.05;100201.47;4956544;28;20074;-81
2023/10/02 10:38:26;;;;;;;22.80;12.02;;;;;;;24.64;56.99;100189.69;4956918;28;20090;-81
2023/10/02 10:41:06;;;;;;;18.05;11.48;;;;;;;24.81;56.70;100191.34;4956433;29;20043;-81
2023/10/02 10:43:44;;;;;;;21.48;11.43;;;;;;;24.98;56.85;100192.19;4951333;28;20519;-81
2023/10/02 10:46:14;;;;;;;19.40;10.98;;;;;;;25.16;56.71;100198.38;4955998;28;20488;-80
2023/10/02 10:48:41;;;;;;;24.23;11.68;;;;;;;25.31;56.75;100191.25;4956371;28;20043;-80
2023/10/02 10:51:20;;;;;;;21.75;11.80;;;;;;;25.47;56.54;100197.59;4956302;28;20102;-80
2023/10/02 10:53:52;;;;;;;23.13;12.32;;;;;;;25.68;55.99;100190.81;4956006;28;20062;-80
2023/10/02 10:56:22;;;;;;;21.52;12.30;;;;;;;25.81;55.70;100199.16;4956272;28;20047;-81
2023/10/02 10:59:02;;;;;;;22.73;11.60;;;;;;;25.90;54.61;100189.16;4956164;28;20500;-82
2023/10/02 11:01:29;;;;;;;20.23;11.55;;;;;;;25.99;54.51;100195.34;4956232;28;20086;-80
2023/10/02 11:04:02;;;;;;;23.33;11.77;;;;;;;26.00;54.13;100194.31;4955621;28;20059;-81
2023/10/02 11:06:29;;;;;;;21.75;12.55;;;;;;;26.04;53.99;100192.13;4956088;29;20054;-81
2023/10/02 11:09:11;;;;;;;22.40;12.05;;;;;;;26.00;53.88;100205.97;4955849;28;20043;-81
2023/10/02 11:11:49;;;;;;;23.75;12.15;;;;;;;26.04;53.63;100205.59;4955990;28;20051;-80
2023/10/02 11:14:22;;;;;;;20.67;12.25;;;;;;;26.02;53.38;100208.47;4955501;28;20059;-82
2023/10/02 11:16:54;;;;;;;22.60;12.15;;;;;;;26.00;53.69;100205.97;4955953;28;20055;-81
2023/10/02 11:19:25;;;;;;;20.60;12.35;;;;;;;26.02;53.85;100193.13;4954543;29;20484;-81
2023/10/02 11:24:48;;;;;;;22.52;11.80;;;;;;;26.18;54.73;100187.78;4955008;28;20055;-81
2023/10/02 11:27:18;;;;;;;24.10;11.95;;;;;;;26.31;54.38;100192.63;4955545;29;20051;-81
2023/10/02 11:30:01;;;;;;;21.15;11.85;;;;;;;26.45;53.90;100190.97;4955747;28;20055;-80
2023/10/02 11:32:48;;;;;;;22.98;12.50;;;;;;;26.53;52.99;100191.75;4954457;29;20055;-80
2023/10/02 11:35:15;;;;;;;20.70;11.48;;;;;;;26.63;52.83;100185.25;4954650;28;20460;-81
2023/10/02 11:37:47;;;;;;;18.83;11.85;;;;;;;26.61;52.55;100190.84;4955211;28;20059;-81
2023/10/02 11:40:14;;;;;;;20.88;11.82;;;;;;;26.62;52.08;100192.53;4954941;28;20086;-81
2023/10/02 11:42:41;;;;;;;19.55;11.32;;;;;;;26.60;52.72;100185.63;4955338;28;20090;-80
2023/10/02 11:45:10;;;;;;;22.02;12.65;;;;;;;26.61;52.43;100190.03;4955127;28;20058;-81
2023/10/02 11:47:37;;;;;;;21.17;11.98;;;;;;;26.62;52.47;100186.28;4954907;28;20062;-82
2023/10/02 11:50:05;;;;;;;21.05;11.52;;;;;;;26.63;52.57;100186.13;4955126;28;20138;-81
2023/10/02 11:52:32;;;;;;;23.70;12.57;;;;;;;26.64;52.23;100179.69;4955091;28;20074;-81
2023/10/02 11:54:59;;;;;;;21.70;12.02;;;;;;;26.64;52.25;100173.44;4954983;28;20126;-81
2023/10/02 11:57:25;;;;;;;21.83;12.30;;;;;;;26.64;52.67;100176.13;4955117;28;20794;-80
2023/10/02 11:59:52;;;;;;;22.40;12.40;;;;;;;26.68;52.99;100177.44;4955057;28;20051;-80
2023/10/02 12:02:19;;;;;;;20.15;12.23;;;;;;;26.75;53.08;100183.78;4954624;28;20047;-82
2023/10/02 12:04:46;;;;;;;22.60;12.52;;;;;;;26.87;52.81;100175.25;4954592;29;20055;-81
2023/10/02 12:07:16;;;;;;;22.00;12.30;;;;;;;26.99;52.69;100175.66;4954921;28;20059;-83
2023/10/02 12:09:47;;;;;;;32.50;14.40;;;;;;;27.13;52.96;100165.88;4954893;28;20047;-81
2023/10/02 12:12:14;;;;;;;24.90;12.15;;;;;;;27.27;53.18;100166.88;4954603;28;20055;-81
2023/10/02 12:14:42;;;;;;;23.63;12.77;;;;;;;27.43;52.79;100163.97;4954401;28;20051;-81
2023/10/02 12:17:11;;;;;;;20.83;12.20;;;;;;;27.65;53.62;100157.78;4954680;28;20086;-81
2023/10/02 12:19:40;;;;;;;18.73;12.18;;;;;;;27.93;53.08;100154.34;4954875;29;20043;-81
2023/10/02 12:22:07;;;;;;;21.35;12.68;;;;;;;28.26;52.07;100151.16;4954782;28;20055;-81
2023/10/02 12:24:36;;;;;;;21.90;12.15;;;;;;;28.57;51.04;100154.53;4952788;29;20051;-83
2023/10/02 12:27:10;;;;;;;21.52;11.55;;;;;;;28.81;50.02;100152.41;4954510;28;20059;-81
2023/10/02 12:29:38;;;;;;;18.40;10.48;;;;;;;28.95;49.52;100153.34;4954399;28;20063;-81
2023/10/02 12:32:05;;;;;;;22.80;11.43;;;;;;;29.02;49.13;100156.94;4954587;28;20126;-81
2023/10/02 12:34:33;;;;;;;20.58;12.15;;;;;;;29.04;48.46;100149.41;4953845;28;20130;-81
2023/10/02 12:37:00;;;;;;;19.45;11.32;;;;;;;29.02;48.67;100135.25;4954416;28;20078;-81
2023/10/02 12:39:28;;;;;;;19.45;11.38;;;;;;;28.95;48.21;100140.63;4954219;28;20527;-81